Time;durP1;ratioP1;P1;durP2;ratioP2;P2;SDS_P1;SDS_P2;PMS_P1;PMS_P2;Temp;Humidity;BMP_temperature;BMP_pressure;BME280_temperature;BME280_humidity;BME280_pressure;Samples;Min_cycle;Max_cycle;Signal;HPM_P1;HPM_P2
2022/03/02 00:01:59;;;;;;;;;;;;;;;;;;5054567;28;19905;-48
2022/03/02 00:04:25;;;;;;;;;;;;;;;;;;5054417;28;19917;-49
2022/03/02 00:06:50;;;;;;;;;;;;;;;;;;5054501;28;19901;-49
2022/03/02 00:09:15;;;;;;;;;;;;;;;;;;5054500;28;19909;-51
2022/03/02 00:11:40;;;;;;;;;;;;;;;;;;5054209;28;19916;-48
2022/03/02 00:14:05;;;;;;;;;;;;;;;;;;5036345;28;19919;-49
2022/03/02 00:16:30;;;;;;;;;;;;;;;;;;5054273;28;19934;-52
2022/03/02 00:18:55;;;;;;;;;;;;;;;;;;5054215;28;19979;-50
2022/03/02 00:21:21;;;;;;;;;;;;;;;;;;5029472;28;19917;-50
2022/03/02 00:23:46;;;;;;;;;;;;;;;;;;5051151;28;20009;-49
2022/03/02 00:26:11;;;;;;;;;;;;;;;;;;5047175;28;19975;-49
2022/03/02 00:28:36;;;;;;;;;;;;;;;;;;5051923;28;19956;-49
2022/03/02 00:31:01;;;;;;;;;;;;;;;;;;5054168;28;19924;-49
2022/03/02 00:33:26;;;;;;;;;;;;;;;;;;5054229;28;19913;-50
2022/03/02 00:35:52;;;;;;;;;;;;;;;;;;5037236;28;19913;-49
2022/03/02 00:38:17;;;;;;;;;;;;;;;;;;5058336;28;19914;-49
2022/03/02 00:40:42;;;;;;;;;;;;;;;;;;5058294;28;19912;-49
2022/03/02 00:43:07;;;;;;;;;;;;;;;;;;5058181;28;19909;-50
2022/03/02 00:45:32;;;;;;;;;;;;;;;;;;5058225;28;19999;-50
2022/03/02 00:47:57;;;;;;;;;;;;;;;;;;5058247;28;19916;-49
2022/03/02 00:50:22;;;;;;;;;;;;;;;;;;5057710;28;19913;-50
2022/03/02 00:52:47;;;;;;;;;;;;;;;;;;5058015;28;19917;-47
2022/03/02 00:55:12;;;;;;;;;;;;;;;;;;5058041;28;20283;-50
2022/03/02 00:57:37;;;;;;;;;;;;;;;;;;5056905;28;19986;-49
2022/03/02 01:00:03;;;;;;;;;;;;;;;;;;5057922;28;19962;-49
2022/03/02 01:02:28;;;;;;;;;;;;;;;;;;5058008;28;19909;-49
2022/03/02 01:04:53;;;;;;;;;;;;;;;;;;5057863;28;19960;-51
2022/03/02 01:07:18;;;;;;;;;;;;;;;;;;5058264;28;20003;-52
2022/03/02 01:09:43;;;;;;;;;;;;;;;;;;5040377;28;19909;-49
2022/03/02 01:12:08;;;;;;;;;;;;;;;;;;5039870;28;20007;-49
2022/03/02 01:14:33;;;;;;;;;;;;;;;;;;5057869;28;19995;-51
2022/03/02 01:16:58;;;;;;;;;;;;;;;;;;5057736;28;19909;-49
2022/03/02 01:19:23;;;;;;;;;;;;;;;;;;5053533;28;20467;-51
2022/03/02 01:21:49;;;;;;;;;;;;;;;;;;5037648;28;20295;-49
2022/03/02 01:24:14;;;;;;;;;;;;;;;;;;5048975;28;19916;-52
2022/03/02 01:26:39;;;;;;;;;;;;;;;;;;5054871;28;19920;-49
2022/03/02 01:29:04;;;;;;;;;;;;;;;;;;5057582;28;19916;-49
2022/03/02 01:31:29;;;;;;;;;;;;;;;;;;5057095;28;20364;-50
2022/03/02 01:33:54;;;;;;;;;;;;;;;;;;5057131;28;19912;-50
2022/03/02 01:36:19;;;;;;;;;;;;;;;;;;5057226;28;20369;-49
2022/03/02 01:38:44;;;;;;;;;;;;;;;;;;5057250;28;20423;-51
2022/03/02 01:41:09;;;;;;;;;;;;;;;;;;5057235;28;19986;-51
2022/03/02 01:43:35;;;;;;;;;;;;;;;;;;5057041;28;19912;-50
2022/03/02 01:46:00;;;;;;;;;;;;;;;;;;5057082;28;19944;-50
2022/03/02 01:48:25;;;;;;;;;;;;;;;;;;5056410;28;20004;-49
2022/03/02 01:50:50;;;;;;;;;;;;;;;;;;5055291;28;19916;-49
2022/03/02 01:53:15;;;;;;;;;;;;;;;;;;5056792;28;19921;-51
2022/03/02 01:55:40;;;;;;;;;;;;;;;;;;5056703;28;19913;-50
2022/03/02 01:58:05;;;;;;;;;;;;;;;;;;5056783;28;19916;-50
2022/03/02 02:00:31;;;;;;;;;;;;;;;;;;5056710;28;19909;-49
2022/03/02 02:02:56;;;;;;;;;;;;;;;;;;5056703;28;19912;-49
2022/03/02 02:05:21;;;;;;;;;;;;;;;;;;5056481;28;19913;-51
2022/03/02 02:07:46;;;;;;;;;;;;;;;;;;5056567;28;19936;-49
2022/03/02 02:10:11;;;;;;;;;;;;;;;;;;5056627;28;19952;-52
2022/03/02 02:12:36;;;;;;;;;;;;;;;;;;5056429;28;19923;-52
2022/03/02 02:15:01;;;;;;;;;;;;;;;;;;5056442;28;20039;-51
2022/03/02 02:17:27;;;;;;;;;;;;;;;;;;5056443;28;19909;-49
2022/03/02 02:19:52;;;;;;;;;;;;;;;;;;5054638;28;19913;-52
2022/03/02 02:22:17;;;;;;;;;;;;;;;;;;5056398;28;19948;-49
2022/03/02 02:24:43;;;;;;;;;;;;;;;;;;5038215;28;19913;-51
2022/03/02 02:27:08;;;;;;;;;;;;;;;;;;5051375;28;19919;-49
2022/03/02 02:29:33;;;;;;;;;;;;;;;;;;5053456;28;19956;-50
2022/03/02 02:31:58;;;;;;;;;;;;;;;;;;5065711;28;20343;-51
2022/03/02 02:34:23;;;;;;;;;;;;;;;;;;5055367;28;20019;-50
2022/03/02 02:36:48;;;;;;;;;;;;;;;;;;5056118;28;19915;-49
2022/03/02 02:39:13;;;;;;;;;;;;;;;;;;5056292;28;19940;-49
2022/03/02 02:41:38;;;;;;;;;;;;;;;;;;5056138;28;19995;-48
2022/03/02 02:44:03;;;;;;;;;;;;;;;;;;5054986;28;19955;-51
2022/03/02 02:46:28;;;;;;;;;;;;;;;;;;5054118;28;20003;-50
2022/03/02 02:48:53;;;;;;;;;;;;;;;;;;5055496;28;19919;-50
2022/03/02 02:51:19;;;;;;;;;;;;;;;;;;5032435;28;20493;-48
2022/03/02 02:53:44;;;;;;;;;;;;;;;;;;5035818;28;19964;-49
2022/03/02 02:56:09;;;;;;;;;;;;;;;;;;5048126;28;19913;-48
2022/03/02 02:58:34;;;;;;;;;;;;;;;;;;5055694;28;19909;-49
2022/03/02 03:00:59;;;;;;;;;;;;;;;;;;5055069;28;19908;-49
2022/03/02 03:03:24;;;;;;;;;;;;;;;;;;5056605;28;19912;-49
2022/03/02 03:05:52;;;;;;;;;;;;;;;;;;5055912;28;19916;-48
2022/03/02 03:08:17;;;;;;;;;;;;;;;;;;5055827;28;19915;-49
2022/03/02 03:10:42;;;;;;;;;;;;;;;;;;5055875;28;20007;-48
2022/03/02 03:13:07;;;;;;;;;;;;;;;;;;5055668;28;19913;-49
2022/03/02 03:15:33;;;;;;;;;;;;;;;;;;5055711;28;20272;-49
2022/03/02 03:17:58;;;;;;;;;;;;;;;;;;5055451;28;19908;-50
2022/03/02 03:20:24;;;;;;;;;;;;;;;;;;5043236;28;19995;-50
2022/03/02 03:22:50;;;;;;;;;;;;;;;;;;5055277;28;19909;-49
2022/03/02 03:25:15;;;;;;;;;;;;;;;;;;5049815;28;19967;-49
2022/03/02 03:27:40;;;;;;;;;;;;;;;;;;5054489;28;19916;-49
2022/03/02 03:30:05;;;;;;;;;;;;;;;;;;5055157;28;19908;-52
2022/03/02 03:32:30;;;;;;;;;;;;;;;;;;5055150;28;20370;-50
2022/03/02 03:34:55;;;;;;;;;;;;;;;;;;5055247;28;19955;-50
2022/03/02 03:37:20;;;;;;;;;;;;;;;;;;5055034;28;19913;-51
2022/03/02 03:39:45;;;;;;;;;;;;;;;;;;5055067;28;19909;-49
2022/03/02 03:42:11;;;;;;;;;;;;;;;;;;5054948;28;19912;-49
2022/03/02 03:44:36;;;;;;;;;;;;;;;;;;5055091;28;19909;-49
2022/03/02 03:47:01;;;;;;;;;;;;;;;;;;5054651;28;19913;-49
2022/03/02 03:49:26;;;;;;;;;;;;;;;;;;5054501;28;20264;-49
2022/03/02 03:51:51;;;;;;;;;;;;;;;;;;5061090;23;19978;-49
2022/03/02 03:54:16;;;;;;;;;;;;;;;;;;5054727;28;20332;-49
2022/03/02 03:56:41;;;;;;;;;;;;;;;;;;5053903;28;20386;-49
2022/03/02 03:59:07;;;;;;;;;;;;;;;;;;5054715;28;20244;-50
2022/03/02 04:01:33;;;;;;;;;;;;;;;;;;5054633;28;20443;-49
2022/03/02 04:03:58;;;;;;;;;;;;;;;;;;5054457;28;19956;-49
2022/03/02 04:06:23;;;;;;;;;;;;;;;;;;5054763;28;19999;-49
2022/03/02 04:08:48;;;;;;;;;;;;;;;;;;5054726;28;19917;-50
2022/03/02 04:11:13;;;;;;;;;;;;;;;;;;5054206;28;20007;-51
2022/03/02 04:13:38;;;;;;;;;;;;;;;;;;5062893;28;19917;-50
2022/03/02 04:16:03;;;;;;;;;;;;;;;;;;5075032;28;19912;-50
2022/03/02 04:18:28;;;;;;;;;;;;;;;;;;5056122;28;19920;-49
2022/03/02 04:20:53;;;;;;;;;;;;;;;;;;5074461;28;19916;-49
2022/03/02 04:23:19;;;;;;;;;;;;;;;;;;5073122;28;19909;-50
2022/03/02 04:25:44;;;;;;;;;;;;;;;;;;5073502;28;19920;-49
2022/03/02 04:28:09;;;;;;;;;;;;;;;;;;5088753;28;19938;-50
2022/03/02 04:30:34;;;;;;;;;;;;;;;;;;5094622;28;19965;-50
2022/03/02 04:32:59;;;;;;;;;;;;;;;;;;5094437;28;19965;-49
2022/03/02 04:35:24;;;;;;;;;;;;;;;;;;5094553;28;20366;-51
2022/03/02 04:37:49;;;;;;;;;;;;;;;;;;5094402;28;19909;-50
2022/03/02 04:40:14;;;;;;;;;;;;;;;;;;5094585;28;19908;-49
2022/03/02 04:42:39;;;;;;;;;;;;;;;;;;5094489;28;19908;-52
2022/03/02 04:45:05;;;;;;;;;;;;;;;;;;5094528;28;19908;-50
2022/03/02 04:47:30;;;;;;;;;;;;;;;;;;5093904;28;19920;-48
2022/03/02 04:49:55;;;;;;;;;;;;;;;;;;5092854;28;20411;-48
2022/03/02 04:52:20;;;;;;;;;;;;;;;;;;5073981;28;19985;-50
2022/03/02 04:57:29;;;;;;;;;;;;;;;;;;5083680;28;20058;-49
2022/03/02 04:59:54;;;;;;;;;;;;;;;;;;5087400;28;19951;-52
2022/03/02 05:02:19;;;;;;;;;;;;;;;;;;5074005;28;20435;-49
2022/03/02 05:04:44;;;;;;;;;;;;;;;;;;5074072;28;20003;-52
2022/03/02 05:07:09;;;;;;;;;;;;;;;;;;5074069;28;19954;-49
2022/03/02 05:09:34;;;;;;;;;;;;;;;;;;5074032;28;19915;-49
2022/03/02 05:12:02;;;;;;;;;;;;;;;;;;5074165;28;19944;-52
2022/03/02 05:14:27;;;;;;;;;;;;;;;;;;5073963;28;20433;-49
2022/03/02 05:16:52;;;;;;;;;;;;;;;;;;5074036;28;19908;-49
2022/03/02 05:19:17;;;;;;;;;;;;;;;;;;5091146;28;19912;-50
2022/03/02 05:21:42;;;;;;;;;;;;;;;;;;5078612;28;19912;-48
2022/03/02 05:24:08;;;;;;;;;;;;;;;;;;5077110;28;19966;-50
2022/03/02 05:26:33;;;;;;;;;;;;;;;;;;5081110;28;19919;-48
2022/03/02 05:28:58;;;;;;;;;;;;;;;;;;5097947;28;19947;-49
2022/03/02 05:31:24;;;;;;;;;;;;;;;;;;5098020;28;20275;-49
2022/03/02 05:33:51;;;;;;;;;;;;;;;;;;5097858;28;19966;-49
2022/03/02 05:36:16;;;;;;;;;;;;;;;;;;5098277;28;20363;-49
2022/03/02 05:38:41;;;;;;;;;;;;;;;;;;5098479;28;19991;-50
2022/03/02 05:41:06;;;;;;;;;;;;;;;;;;5097684;28;19915;-49
2022/03/02 05:43:31;;;;;;;;;;;;;;;;;;5097762;28;19908;-49
2022/03/02 05:45:56;;;;;;;;;;;;;;;;;;5097736;28;19908;-49
2022/03/02 05:48:21;;;;;;;;;;;;;;;;;;5084805;28;19916;-51
2022/03/02 05:50:46;;;;;;;;;;;;;;;;;;5076308;28;19920;-49
2022/03/02 05:53:11;;;;;;;;;;;;;;;;;;5076775;28;20039;-49
2022/03/02 05:55:36;;;;;;;;;;;;;;;;;;5076850;28;19917;-50
2022/03/02 05:58:02;;;;;;;;;;;;;;;;;;5076728;28;19916;-49
2022/03/02 06:00:27;;;;;;;;;;;;;;;;;;5076820;28;20347;-50
2022/03/02 06:02:52;;;;;;;;;;;;;;;;;;5076917;28;20316;-49
2022/03/02 06:05:17;;;;;;;;;;;;;;;;;;5077014;28;19909;-49
2022/03/02 06:07:42;;;;;;;;;;;;;;;;;;5076868;28;19992;-49
2022/03/02 06:10:07;;;;;;;;;;;;;;;;;;5076925;28;19908;-51
2022/03/02 06:12:32;;;;;;;;;;;;;;;;;;5076707;28;19913;-52
2022/03/02 06:14:58;;;;;;;;;;;;;;;;;;5076365;28;19955;-48
2022/03/02 06:17:23;;;;;;;;;;;;;;;;;;5076695;28;19959;-49
2022/03/02 06:19:48;;;;;;;;;;;;;;;;;;5076284;28;19947;-49
2022/03/02 06:22:13;;;;;;;;;;;;;;;;;;5075268;28;19912;-50
2022/03/02 06:24:38;;;;;;;;;;;;;;;;;;5076677;28;19948;-52
2022/03/02 06:27:03;;;;;;;;;;;;;;;;;;5082866;28;19912;-49
2022/03/02 06:29:28;;;;;;;;;;;;;;;;;;5082513;28;19916;-50
2022/03/02 06:31:53;;;;;;;;;;;;;;;;;;5076323;28;20375;-50
2022/03/02 06:34:19;;;;;;;;;;;;;;;;;;5076139;28;19958;-51
2022/03/02 06:36:49;;;;;;;;;;;;;;;;;;5058379;28;20336;-51
2022/03/02 06:39:14;;;;;;;;;;;;;;;;;;5076324;28;20360;-49
2022/03/02 06:41:39;;;;;;;;;;;;;;;;;;5076308;28;19920;-51
2022/03/02 06:44:04;;;;;;;;;;;;;;;;;;5076058;28;19924;-50
2022/03/02 06:46:30;;;;;;;;;;;;;;;;;;5076080;28;19909;-50
2022/03/02 06:48:55;;;;;;;;;;;;;;;;;;5076037;28;19908;-49
2022/03/02 06:51:20;;;;;;;;;;;;;;;;;;5075890;28;20383;-49
2022/03/02 06:53:45;;;;;;;;;;;;;;;;;;5075819;28;20283;-51
2022/03/02 06:56:11;;;;;;;;;;;;;;;;;;5075113;28;19912;-49
2022/03/02 06:58:36;;;;;;;;;;;;;;;;;;5075934;28;19912;-49
2022/03/02 07:01:01;;;;;;;;;;;;;;;;;;5075894;28;19919;-50
2022/03/02 07:03:26;;;;;;;;;;;;;;;;;;5075793;28;19919;-50
2022/03/02 07:05:51;;;;;;;;;;;;;;;;;;5075675;28;20378;-49
2022/03/02 07:08:17;;;;;;;;;;;;;;;;;;5075595;28;20279;-51
2022/03/02 07:10:42;;;;;;;;;;;;;;;;;;5075629;28;20394;-50
2022/03/02 07:13:07;;;;;;;;;;;;;;;;;;5075527;28;19935;-51
2022/03/02 07:15:32;;;;;;;;;;;;;;;;;;5075607;28;20284;-50
2022/03/02 07:17:57;;;;;;;;;;;;;;;;;;5075525;28;19909;-50
2022/03/02 07:20:23;;;;;;;;;;;;;;;;;;5075080;28;19913;-50
2022/03/02 07:22:48;;;;;;;;;;;;;;;;;;5075218;28;19913;-49
2022/03/02 07:25:13;;;;;;;;;;;;;;;;;;5075282;28;19912;-50
2022/03/02 07:27:38;;;;;;;;;;;;;;;;;;5090838;28;20381;-50
2022/03/02 07:30:03;;;;;;;;;;;;;;;;;;5086513;28;20275;-50
2022/03/02 07:32:28;;;;;;;;;;;;;;;;;;5074965;28;20276;-51
2022/03/02 07:34:54;;;;;;;;;;;;;;;;;;5081718;28;19999;-51
2022/03/02 07:37:19;;;;;;;;;;;;;;;;;;5095348;28;20290;-50
2022/03/02 07:39:44;;;;;;;;;;;;;;;;;;5095594;28;20307;-53
2022/03/02 07:42:09;;;;;;;;;;;;;;;;;;5077165;28;19912;-51
2022/03/02 07:44:34;;;;;;;;;;;;;;;;;;5095339;28;19914;-49
2022/03/02 07:46:59;;;;;;;;;;;;;;;;;;5094752;28;19908;-50
2022/03/02 07:49:24;;;;;;;;;;;;;;;;;;5094560;28;19908;-49
2022/03/02 07:51:49;;;;;;;;;;;;;;;;;;5074988;28;19928;-51
2022/03/02 07:54:16;;;;;;;;;;;;;;;;;;5075131;28;20015;-49
2022/03/02 07:56:41;;;;;;;;;;;;;;;;;;5082155;28;19986;-49
2022/03/02 07:59:06;;;;;;;;;;;;;;;;;;5094952;28;19915;-48
2022/03/02 08:01:31;;;;;;;;;;;;;;;;;;5095104;28;19916;-49
2022/03/02 08:03:56;;;;;;;;;;;;;;;;;;5094862;28;19993;-49
2022/03/02 08:06:21;;;;;;;;;;;;;;;;;;5094852;28;20010;-50
2022/03/02 08:08:47;;;;;;;;;;;;;;;;;;5094933;28;19954;-52
2022/03/02 08:11:12;;;;;;;;;;;;;;;;;;5094966;28;20240;-49
2022/03/02 08:13:38;;;;;;;;;;;;;;;;;;5094806;28;20005;-50
2022/03/02 08:16:03;;;;;;;;;;;;;;;;;;5094768;28;19977;-48
2022/03/02 08:18:28;;;;;;;;;;;;;;;;;;5094735;28;19908;-49
2022/03/02 08:20:53;;;;;;;;;;;;;;;;;;5081934;28;19935;-49
2022/03/02 08:23:21;;;;;;;;;;;;;;;;;;5074369;28;20314;-49
2022/03/02 08:25:46;;;;;;;;;;;;;;;;;;5056391;28;20276;-49
2022/03/02 08:28:11;;;;;;;;;;;;;;;;;;5091734;28;19908;-49
2022/03/02 08:30:36;;;;;;;;;;;;;;;;;;5094103;28;19916;-50
2022/03/02 08:33:02;;;;;;;;;;;;;;;;;;5094517;28;19960;-49
2022/03/02 08:35:27;;;;;;;;;;;;;;;;;;5094455;28;19994;-49
2022/03/02 08:37:52;;;;;;;;;;;;;;;;;;5094566;28;19940;-49
2022/03/02 08:40:17;;;;;;;;;;;;;;;;;;5094569;28;19908;-51
2022/03/02 08:42:44;;;;;;;;;;;;;;;;;;5094743;28;20339;-49
2022/03/02 08:45:09;;;;;;;;;;;;;;;;;;5094529;28;20307;-49
2022/03/02 08:47:34;;;;;;;;;;;;;;;;;;5095404;28;19993;-49
2022/03/02 08:49:59;;;;;;;;;;;;;;;;;;5094845;28;19909;-50
2022/03/02 08:52:24;;;;;;;;;;;;;;;;;;5094450;28;19920;-49
2022/03/02 08:54:49;;;;;;;;;;;;;;;;;;5085935;28;20232;-48
2022/03/02 08:57:14;;;;;;;;;;;;;;;;;;5093504;28;19912;-49
2022/03/02 08:59:41;;;;;;;;;;;;;;;;;;5098617;28;20285;-48
2022/03/02 09:02:06;;;;;;;;;;;;;;;;;;5098422;28;20024;-48
2022/03/02 09:04:31;;;;;;;;;;;;;;;;;;5098374;28;20351;-48
2022/03/02 09:06:56;;;;;;;;;;;;;;;;;;5098369;28;19914;-49
2022/03/02 09:09:21;;;;;;;;;;;;;;;;;;5098159;28;19919;-49
2022/03/02 09:11:46;;;;;;;;;;;;;;;;;;5098038;28;19919;-51
2022/03/02 09:14:11;;;;;;;;;;;;;;;;;;5098064;28;19940;-50
2022/03/02 09:16:39;;;;;;;;;;;;;;;;;;5098193;28;20428;-50
2022/03/02 09:19:05;;;;;;;;;;;;;;;;;;5098016;28;19908;-49
2022/03/02 09:21:30;;;;;;;;;;;;;;;;;;5098109;28;20373;-50
2022/03/02 09:23:55;;;;;;;;;;;;;;;;;;5098062;28;19915;-49
2022/03/02 09:26:20;;;;;;;;;;;;;;;;;;5096871;28;19924;-51
2022/03/02 09:28:46;;;;;;;;;;;;;;;;;;5079749;28;19908;-51
2022/03/02 09:31:11;;;;;;;;;;;;;;;;;;5097810;28;19911;-51
2022/03/02 09:33:36;;;;;;;;;;;;;;;;;;5097739;28;19923;-49
2022/03/02 09:36:01;;;;;;;;;;;;;;;;;;5097884;28;19912;-50
2022/03/02 09:38:27;;;;;;;;;;;;;;;;;;5097704;28;20367;-51
2022/03/02 09:40:53;;;;;;;;;;;;;;;;;;5097654;28;19943;-51
2022/03/02 09:43:19;;;;;;;;;;;;;;;;;;5097660;28;19961;-50
2022/03/02 09:45:44;;;;;;;;;;;;;;;;;;5097659;28;19915;-50
2022/03/02 09:48:09;;;;;;;;;;;;;;;;;;5097675;28;19909;-49
2022/03/02 09:50:35;;;;;;;;;;;;;;;;;;5097306;28;20262;-49
2022/03/02 09:53:00;;;;;;;;;;;;;;;;;;5097344;28;19911;-50
2022/03/02 09:55:25;;;;;;;;;;;;;;;;;;5096643;28;19920;-52
2022/03/02 09:57:50;;;;;;;;;;;;;;;;;;5096855;28;20368;-52
2022/03/02 10:00:15;;;;;;;;;;;;;;;;;;5097372;28;19908;-50
2022/03/02 10:02:40;;;;;;;;;;;;;;;;;;5097481;28;19909;-50
2022/03/02 10:05:06;;;;;;;;;;;;;;;;;;5097239;28;20328;-49
2022/03/02 10:07:31;;;;;;;;;;;;;;;;;;5097298;28;19911;-53
2022/03/02 10:09:56;;;;;;;;;;;;;;;;;;5096438;28;19908;-52
2022/03/02 10:12:21;;;;;;;;;;;;;;;;;;5097056;28;19954;-50
2022/03/02 10:14:46;;;;;;;;;;;;;;;;;;5097106;28;20414;-52
2022/03/02 10:17:11;;;;;;;;;;;;;;;;;;5096881;28;19959;-49
2022/03/02 10:19:36;;;;;;;;;;;;;;;;;;5096838;28;19986;-50
2022/03/02 10:22:01;;;;;;;;;;;;;;;;;;5096994;28;19963;-50
2022/03/02 10:24:26;;;;;;;;;;;;;;;;;;5096870;28;19948;-50
2022/03/02 10:26:52;;;;;;;;;;;;;;;;;;5094748;28;19916;-52
2022/03/02 10:29:17;;;;;;;;;;;;;;;;;;5096885;28;20252;-50
2022/03/02 10:31:44;;;;;;;;;;;;;;;;;;5096778;28;19995;-47
2022/03/02 10:34:10;;;;;;;;;;;;;;;;;;5096829;28;19916;-50
2022/03/02 10:36:36;;;;;;;;;;;;;;;;;;5094577;28;19908;-51
2022/03/02 10:39:01;;;;;;;;;;;;;;;;;;5096606;28;19972;-50
2022/03/02 10:41:26;;;;;;;;;;;;;;;;;;5096605;28;19915;-50
2022/03/02 10:43:51;;;;;;;;;;;;;;;;;;5096603;28;19962;-51
2022/03/02 10:46:16;;;;;;;;;;;;;;;;;;5096548;28;20412;-51
2022/03/02 10:48:42;;;;;;;;;;;;;;;;;;5096231;28;20274;-50
2022/03/02 10:51:07;;;;;;;;;;;;;;;;;;5096064;28;19927;-51
2022/03/02 10:53:33;;;;;;;;;;;;;;;;;;5093649;28;19912;-52
2022/03/02 10:55:59;;;;;;;;;;;;;;;;;;5094827;28;20325;-50
2022/03/02 10:58:24;;;;;;;;;;;;;;;;;;5096092;28;19935;-50
2022/03/02 11:00:49;;;;;;;;;;;;;;;;;;5096317;28;20034;-51
2022/03/02 11:03:14;;;;;;;;;;;;;;;;;;5096353;28;20015;-49
2022/03/02 11:05:39;;;;;;;;;;;;;;;;;;5096686;28;19919;-50
2022/03/02 11:08:04;;;;;;;;;;;;;;;;;;5096235;28;19919;-49
2022/03/02 11:10:40;;;;;;;;;;;;;;;;;;5096079;28;19920;-50
2022/03/02 11:13:11;;;;;;;;;;;;;;;;;;5095997;28;19937;-50
2022/03/02 11:15:36;;;;;;;;;;;;;;;;;;5095443;28;19965;-49
2022/03/02 11:18:01;;;;;;;;;;;;;;;;;;5095757;28;20006;-49
2022/03/02 11:20:26;;;;;;;;;;;;;;;;;;5094403;28;19998;-49
2022/03/02 11:22:51;;;;;;;;;;;;;;;;;;5095665;28;19908;-52
2022/03/02 11:25:17;;;;;;;;;;;;;;;;;;5095448;28;20278;-51
2022/03/02 11:27:42;;;;;;;;;;;;;;;;;;5095492;28;19915;-50
2022/03/02 11:30:07;;;;;;;;;;;;;;;;;;5095518;28;19915;-50
2022/03/02 11:32:32;;;;;;;;;;;;;;;;;;5094340;28;19905;-50
2022/03/02 11:35:03;;;;;;;;;;;;;;;;;;5095288;28;19962;-50
2022/03/02 11:37:28;;;;;;;;;;;;;;;;;;5095314;28;19908;-50
2022/03/02 11:39:53;;;;;;;;;;;;;;;;;;5095282;28;19994;-50
2022/03/02 11:42:20;;;;;;;;;;;;;;;;;;5095197;28;19924;-50
2022/03/02 11:44:45;;;;;;;;;;;;;;;;;;5094572;28;19923;-49
2022/03/02 11:47:10;;;;;;;;;;;;;;;;;;5095047;28;19913;-50
2022/03/02 11:49:35;;;;;;;;;;;;;;;;;;5094720;28;19909;-51
2022/03/02 11:52:00;;;;;;;;;;;;;;;;;;5094302;28;19920;-48
2022/03/02 11:54:25;;;;;;;;;;;;;;;;;;5076842;28;19916;-51
2022/03/02 11:56:50;;;;;;;;;;;;;;;;;;5094591;28;19923;-50
2022/03/02 11:59:16;;;;;;;;;;;;;;;;;;5094949;28;19912;-49
2022/03/02 12:01:41;;;;;;;;;;;;;;;;;;5094740;28;20015;-50
2022/03/02 12:04:07;;;;;;;;;;;;;;;;;;5095089;28;19915;-51
2022/03/02 12:06:32;;;;;;;;;;;;;;;;;;5095055;28;20268;-52
2022/03/02 12:08:57;;;;;;;;;;;;;;;;;;5094884;28;19998;-50
2022/03/02 12:11:22;;;;;;;;;;;;;;;;;;5094865;28;19908;-49
2022/03/02 12:13:47;;;;;;;;;;;;;;;;;;5094700;28;19912;-49
2022/03/02 12:16:13;;;;;;;;;;;;;;;;;;5094617;28;19938;-51
2022/03/02 12:18:38;;;;;;;;;;;;;;;;;;5094746;28;19904;-49
2022/03/02 12:21:04;;;;;;;;;;;;;;;;;;5094036;28;19912;-50
2022/03/02 12:23:29;;;;;;;;;;;;;;;;;;5094777;28;19912;-49
2022/03/02 12:25:54;;;;;;;;;;;;;;;;;;5093383;28;19920;-49
2022/03/02 12:28:19;;;;;;;;;;;;;;;;;;5094619;28;20313;-50
2022/03/02 12:30:44;;;;;;;;;;;;;;;;;;5094451;28;20003;-50
2022/03/02 12:33:09;;;;;;;;;;;;;;;;;;5094199;28;19916;-51
2022/03/02 12:35:34;;;;;;;;;;;;;;;;;;5094378;28;19912;-49
2022/03/02 12:37:59;;;;;;;;;;;;;;;;;;5094669;28;20371;-50
2022/03/02 12:40:26;;;;;;;;;;;;;;;;;;5094297;28;19908;-49
2022/03/02 12:42:51;;;;;;;;;;;;;;;;;;5086120;28;19914;-51
2022/03/02 12:45:18;;;;;;;;;;;;;;;;;;5094629;28;19908;-49
2022/03/02 12:47:43;;;;;;;;;;;;;;;;;;5094574;28;20290;-49
2022/03/02 12:50:08;;;;;;;;;;;;;;;;;;5094408;28;19908;-52
2022/03/02 12:52:34;;;;;;;;;;;;;;;;;;5094027;28;19967;-51
2022/03/02 12:55:00;;;;;;;;;;;;;;;;;;5094320;28;19915;-49
2022/03/02 12:57:25;;;;;;;;;;;;;;;;;;5093490;28;19920;-50
2022/03/02 12:59:50;;;;;;;;;;;;;;;;;;5093565;28;19935;-49
2022/03/02 13:02:15;;;;;;;;;;;;;;;;;;5093927;28;19966;-52
2022/03/02 13:04:40;;;;;;;;;;;;;;;;;;5092987;28;20286;-50
2022/03/02 13:07:05;;;;;;;;;;;;;;;;;;5094185;28;19935;-50
2022/03/02 13:09:30;;;;;;;;;;;;;;;;;;5094305;28;19915;-49
2022/03/02 13:11:56;;;;;;;;;;;;;;;;;;5094213;28;19924;-49
2022/03/02 13:14:21;;;;;;;;;;;;;;;;;;5094053;28;19920;-49
2022/03/02 13:16:48;;;;;;;;;;;;;;;;;;5094049;28;19919;-51
2022/03/02 13:19:13;;;;;;;;;;;;;;;;;;5094064;28;19989;-51
2022/03/02 13:21:38;;;;;;;;;;;;;;;;;;5093893;28;19916;-49
2022/03/02 13:24:04;;;;;;;;;;;;;;;;;;5094214;28;19916;-50
2022/03/02 13:26:29;;;;;;;;;;;;;;;;;;5093298;28;19912;-51
2022/03/02 13:28:54;;;;;;;;;;;;;;;;;;5093853;28;20086;-51
2022/03/02 13:31:19;;;;;;;;;;;;;;;;;;5093810;28;20011;-51
2022/03/02 13:33:44;;;;;;;;;;;;;;;;;;5093835;28;19918;-49
2022/03/02 13:36:10;;;;;;;;;;;;;;;;;;5094044;28;20381;-52
2022/03/02 13:38:35;;;;;;;;;;;;;;;;;;5093666;28;20258;-50
2022/03/02 13:41:00;;;;;;;;;;;;;;;;;;5093810;28;19934;-49
2022/03/02 13:43:25;;;;;;;;;;;;;;;;;;5094116;28;19908;-49
2022/03/02 13:45:50;;;;;;;;;;;;;;;;;;5097590;28;19908;-50
2022/03/02 13:48:15;;;;;;;;;;;;;;;;;;5097495;28;19908;-49
2022/03/02 13:50:40;;;;;;;;;;;;;;;;;;5097247;28;19916;-49
2022/03/02 13:53:05;;;;;;;;;;;;;;;;;;5097384;28;19966;-48
2022/03/02 13:55:30;;;;;;;;;;;;;;;;;;5097509;28;19934;-49
2022/03/02 13:57:55;;;;;;;;;;;;;;;;;;5087521;28;19955;-49
2022/03/02 14:00:21;;;;;;;;;;;;;;;;;;5097380;28;19912;-52
2022/03/02 14:02:46;;;;;;;;;;;;;;;;;;5097252;28;19912;-48
2022/03/02 14:05:12;;;;;;;;;;;;;;;;;;5096868;28;20402;-51
2022/03/02 14:07:37;;;;;;;;;;;;;;;;;;5096658;28;20023;-49
2022/03/02 14:10:02;;;;;;;;;;;;;;;;;;5089501;28;19958;-49
2022/03/02 14:12:27;;;;;;;;;;;;;;;;;;5097455;28;19911;-48
2022/03/02 14:14:52;;;;;;;;;;;;;;;;;;5097067;28;19912;-48
2022/03/02 14:17:17;;;;;;;;;;;;;;;;;;5097055;28;19908;-48
2022/03/02 14:19:42;;;;;;;;;;;;;;;;;;5096709;28;19962;-48
2022/03/02 14:22:11;;;;;;;;;;;;;;;;;;5097034;28;19934;-49
2022/03/02 14:24:36;;;;;;;;;;;;;;;;;;5096821;28;19912;-50
2022/03/02 14:27:02;;;;;;;;;;;;;;;;;;5095489;28;20271;-48
2022/03/02 14:29:28;;;;;;;;;;;;;;;;;;5096797;28;19908;-48
2022/03/02 14:31:53;;;;;;;;;;;;;;;;;;5094133;28;20003;-49
2022/03/02 14:34:18;;;;;;;;;;;;;;;;;;5077993;28;20366;-48
2022/03/02 14:36:43;;;;;;;;;;;;;;;;;;5096627;28;19915;-49
2022/03/02 14:39:08;;;;;;;;;;;;;;;;;;5096620;28;19912;-49
2022/03/02 14:41:36;;;;;;;;;;;;;;;;;;5096503;28;19909;-49
2022/03/02 14:44:01;;;;;;;;;;;;;;;;;;5096400;28;19912;-48
2022/03/02 14:46:26;;;;;;;;;;;;;;;;;;5079783;28;19916;-48
2022/03/02 14:48:52;;;;;;;;;;;;;;;;;;5076240;28;20375;-50
2022/03/02 14:51:17;;;;;;;;;;;;;;;;;;5076016;28;19925;-50
2022/03/02 14:53:42;;;;;;;;;;;;;;;;;;5076025;28;19966;-53
2022/03/02 14:56:07;;;;;;;;;;;;;;;;;;5092043;28;19916;-49
2022/03/02 14:58:32;;;;;;;;;;;;;;;;;;5096091;28;19934;-51
2022/03/02 15:00:57;;;;;;;;;;;;;;;;;;5096207;28;19908;-52
2022/03/02 15:03:22;;;;;;;;;;;;;;;;;;5096167;28;19908;-50
2022/03/02 15:05:47;;;;;;;;;;;;;;;;;;5077899;28;19916;-49
2022/03/02 15:08:13;;;;;;;;;;;;;;;;;;5069746;28;20290;-50
2022/03/02 15:10:38;;;;;;;;;;;;;;;;;;5075651;28;19932;-51
2022/03/02 15:15:47;;;;;;;;;;;;;;;;;;5075435;28;19930;-49
2022/03/02 15:18:12;;;;;;;;;;;;;;;;;;5075427;28;19983;-50
2022/03/02 15:20:37;;;;;;;;;;;;;;;;;;5075465;28;20406;-51
2022/03/02 15:23:02;;;;;;;;;;;;;;;;;;5075422;28;20267;-50
2022/03/02 15:25:27;;;;;;;;;;;;;;;;;;5075515;28;19909;-50
2022/03/02 15:27:52;;;;;;;;;;;;;;;;;;5094557;28;19919;-50
2022/03/02 15:30:17;;;;;;;;;;;;;;;;;;5095548;28;19974;-52
2022/03/02 15:32:43;;;;;;;;;;;;;;;;;;5095561;28;19927;-49
2022/03/02 15:35:08;;;;;;;;;;;;;;;;;;5095339;28;19912;-49
2022/03/02 15:37:33;;;;;;;;;;;;;;;;;;5095408;28;19908;-49
2022/03/02 15:40:02;;;;;;;;;;;;;;;;;;5095351;28;19953;-51
2022/03/02 15:42:27;;;;;;;;;;;;;;;;;;5094101;28;19992;-49
2022/03/02 15:44:52;;;;;;;;;;;;;;;;;;5094560;28;20351;-51
2022/03/02 15:47:17;;;;;;;;;;;;;;;;;;5095156;28;20021;-50
2022/03/02 15:49:42;;;;;;;;;;;;;;;;;;5094955;28;19919;-52
2022/03/02 15:52:08;;;;;;;;;;;;;;;;;;5054198;22;19932;-49
2022/03/02 15:54:35;;;;;;;;;;;;;;;;;;5033889;28;20132;-51
2022/03/02 15:57:03;;;;;;;;;;;;;;;;;;5034753;28;19909;-50
2022/03/02 15:59:32;;;;;;;;;;;;;;;;;;5035807;28;19916;-49
2022/03/02 16:01:57;;;;;;;;;;;;;;;;;;5034773;28;19913;-50
2022/03/02 16:04:22;;;;;;;;;;;;;;;;;;5051360;28;19917;-50
2022/03/02 16:06:47;;;;;;;;;;;;;;;;;;5054279;28;19909;-51
2022/03/02 16:09:12;;;;;;;;;;;;;;;;;;5054613;28;20402;-52
2022/03/02 16:11:38;;;;;;;;;;;;;;;;;;5051947;28;19961;-49
2022/03/02 16:14:03;;;;;;;;;;;;;;;;;;5035204;28;19924;-49
2022/03/02 16:16:28;;;;;;;;;;;;;;;;;;5034721;28;19909;-51
2022/03/02 16:18:53;;;;;;;;;;;;;;;;;;5033001;28;19917;-49
2022/03/02 16:21:23;;;;;;;;;;;;;;;;;;5043704;28;19913;-51
2022/03/02 16:23:49;;;;;;;;;;;;;;;;;;5054179;28;20268;-49
2022/03/02 16:26:15;;;;;;;;;;;;;;;;;;5053259;28;19919;-49
2022/03/02 16:28:40;;;;;;;;;;;;;;;;;;5054242;28;19968;-49
2022/03/02 16:31:05;;;;;;;;;;;;;;;;;;5054113;28;19923;-50
2022/03/02 16:33:30;;;;;;;;;;;;;;;;;;5053906;28;19936;-50
2022/03/02 16:35:55;;;;;;;;;;;;;;;;;;5053904;28;20000;-49
2022/03/02 16:38:20;;;;;;;;;;;;;;;;;;5054041;28;19968;-49